Time;durP1;ratioP1;P1;durP2;ratioP2;P2;SDS_P1;SDS_P2;PMS_P1;PMS_P2;Temp;Humidity;BMP_temperature;BMP_pressure;BME280_temperature;BME280_humidity;BME280_pressure;Samples;Min_cycle;Max_cycle;Signal;HPM_P1;HPM_P2
2022/11/16 00:02:01;;;;;;;;;;;;;;;-142.75;100.00;75952.25;5041019;28;19993;-68
2022/11/16 00:04:26;;;;;;;;;;;;;;;-142.75;100.00;75944.38;5022738;28;19922;-68
2022/11/16 00:06:52;;;;;;;;;;;;;;;-142.75;100.00;75942.41;5041060;28;20463;-67
2022/11/16 00:09:25;;;;;;;;;;;;;;;-142.75;100.00;75942.41;5040989;28;20045;-68
2022/11/16 00:12:02;;;;;;;;;;;;;;;-142.75;100.00;75938.47;5042257;28;19912;-67
2022/11/16 00:14:30;;;;;;;;;;;;;;;-142.75;100.00;75940.44;5044912;28;20546;-67
2022/11/16 00:16:56;;;;;;;;;;;;;;;-142.75;100.00;75932.56;5026803;28;19938;-67
2022/11/16 00:19:22;;;;;;;;;;;;;;;-142.75;100.00;75946.34;5045034;28;20388;-68
2022/11/16 00:21:47;;;;;;;;;;;;;;;-142.75;100.00;75944.38;5044484;28;19993;-67
2022/11/16 00:24:14;;;;;;;;;;;;;;;-142.75;100.00;75950.28;5026361;28;19970;-67
2022/11/16 00:26:39;;;;;;;;;;;;;;;-142.75;100.00;75956.19;5044874;28;19964;-67
2022/11/16 00:29:05;;;;;;;;;;;;;;;-142.75;100.00;75944.38;5044595;28;20026;-67
2022/11/16 00:31:30;;;;;;;;;;;;;;;-142.75;100.00;75928.63;5044517;28;19915;-67
2022/11/16 00:33:56;;;;;;;;;;;;;;;-142.75;100.00;75940.44;5044278;28;19911;-67
2022/11/16 00:36:21;;;;;;;;;;;;;;;-142.75;100.00;75940.44;5044344;28;20271;-67
2022/11/16 00:38:46;;;;;;;;;;;;;;;-142.75;100.00;75932.56;5044131;28;20376;-67
2022/11/16 00:41:11;;;;;;;;;;;;;;;-142.75;100.00;75928.63;5044416;28;20177;-68
2022/11/16 00:43:37;;;;;;;;;;;;;;;-142.75;100.00;75936.50;5046955;28;20220;-67
2022/11/16 00:46:03;;;;;;;;;;;;;;;-142.75;100.00;75926.66;5044246;28;20112;-67
2022/11/16 00:48:28;;;;;;;;;;;;;;;-142.75;100.00;75924.69;5044120;28;20190;-67
2022/11/16 00:50:54;;;;;;;;;;;;;;;-142.75;100.00;75916.81;5044025;28;20065;-67
2022/11/16 00:53:19;;;;;;;;;;;;;;;-142.75;100.00;75916.81;5044093;28;20393;-67
2022/11/16 00:55:45;;;;;;;;;;;;;;;-142.75;100.00;75922.72;5043888;28;20224;-67
2022/11/16 00:58:10;;;;;;;;;;;;;;;-142.75;100.00;75922.72;5043739;28;20308;-67
2022/11/16 01:00:36;;;;;;;;;;;;;;;-142.75;100.00;75922.72;5043886;28;20317;-67
2022/11/16 01:03:02;;;;;;;;;;;;;;;-142.75;100.00;75920.75;5044366;28;20236;-67
2022/11/16 01:05:27;;;;;;;;;;;;;;;-142.75;100.00;75914.84;5044004;28;19916;-67
2022/11/16 01:07:52;;;;;;;;;;;;;;;-142.75;100.00;75912.88;5025454;28;20251;-67
2022/11/16 01:10:19;;;;;;;;;;;;;;;-142.75;100.00;75912.88;5043919;28;19916;-67
2022/11/16 01:12:46;;;;;;;;;;;;;;;-142.75;100.00;75908.94;5024242;28;19911;-67
2022/11/16 01:15:11;;;;;;;;;;;;;;;-142.75;100.00;75908.94;5043759;28;19911;-67
2022/11/16 01:17:37;;;;;;;;;;;;;;;-142.75;100.00;75912.88;5043664;28;20190;-67
2022/11/16 01:20:04;;;;;;;;;;;;;;;-142.75;100.00;75903.03;5029549;28;20477;-67
2022/11/16 01:22:30;;;;;;;;;;;;;;;-142.75;100.00;75905.00;5043363;28;19998;-68
2022/11/16 01:24:55;;;;;;;;;;;;;;;-142.75;100.00;75908.94;5069981;22;20137;-67
2022/11/16 01:27:21;;;;;;;;;;;;;;;-142.75;100.00;75905.00;5059166;27;20292;-67
2022/11/16 01:29:46;;;;;;;;;;;;;;;-142.75;100.00;75899.09;5042437;27;20219;-67
2022/11/16 01:32:11;;;;;;;;;;;;;;;-142.75;100.00;75901.06;5061648;27;20249;-67
2022/11/16 01:34:36;;;;;;;;;;;;;;;-142.75;100.00;75905.00;5046322;27;20374;-68
2022/11/16 01:37:02;;;;;;;;;;;;;;;-142.75;100.00;75893.19;5061552;27;20273;-67
2022/11/16 01:39:27;;;;;;;;;;;;;;;-142.75;100.00;75889.25;5040902;28;20258;-68
2022/11/16 01:41:52;;;;;;;;;;;;;;;-142.75;100.00;75891.22;5058946;27;20186;-68
2022/11/16 01:44:30;;;;;;;;;;;;;;;-142.75;100.00;75881.38;5040275;27;19946;-68
2022/11/16 01:46:55;;;;;;;;;;;;;;;-142.75;100.00;75887.28;5056867;27;19912;-67
2022/11/16 01:49:22;;;;;;;;;;;;;;;-142.75;100.00;75887.28;5060324;27;20351;-67
2022/11/16 01:51:54;;;;;;;;;;;;;;;-142.75;100.00;75873.50;5032791;28;19923;-68
2022/11/16 01:54:19;;;;;;;;;;;;;;;-142.75;100.00;75881.38;5058852;27;19912;-67
2022/11/16 01:56:46;;;;;;;;;;;;;;;-142.75;100.00;75883.34;5058721;27;20077;-68
2022/11/16 01:59:12;;;;;;;;;;;;;;;-142.75;100.00;75873.50;5057780;27;20035;-67
2022/11/16 02:01:38;;;;;;;;;;;;;;;-142.75;100.00;75881.38;5064019;27;19941;-67
2022/11/16 02:04:03;;;;;;;;;;;;;;;-142.75;100.00;75865.63;5057974;27;20301;-68
2022/11/16 02:06:31;;;;;;;;;;;;;;;-142.75;100.00;75873.50;5055536;27;20224;-68
2022/11/16 02:12:18;;;;;;;;;;;;;;;-142.75;100.00;75885.31;5052655;27;20050;-67
2022/11/16 02:15:01;;;;;;;;;;;;;;;-142.75;100.00;75889.25;5063341;27;20416;-67
2022/11/16 02:17:53;;;;;;;;;;;;;;;-142.75;100.00;75885.31;5053829;27;19919;-67
2022/11/16 02:20:37;;;;;;;;;;;;;;;-142.75;100.00;75873.50;5041470;27;19992;-67
2022/11/16 02:23:20;;;;;;;;;;;;;;;-142.75;100.00;75871.53;5059532;27;19915;-67
2022/11/16 02:26:04;;;;;;;;;;;;;;;-142.75;100.00;75865.63;5027599;28;19938;-68
2022/11/16 02:28:39;;;;;;;;;;;;;;;-142.75;100.00;75867.59;5057912;27;19911;-67
2022/11/16 02:31:06;;;;;;;;;;;;;;;-142.75;100.00;75869.56;5059314;27;19911;-67
2022/11/16 02:33:36;;;;;;;;;;;;;;;-142.75;100.00;75877.44;5046095;27;19989;-67
2022/11/16 02:36:03;;;;;;;;;;;;;;;-142.75;100.00;75873.50;5055953;27;19918;-66
2022/11/16 02:38:31;;;;;;;;;;;;;;;-142.75;100.00;75893.19;5051359;27;19911;-66
2022/11/16 02:41:00;;;;;;;;;;;;;;;-142.75;100.00;75893.19;5025486;28;20371;-66
2022/11/16 02:43:32;;;;;;;;;;;;;;;-142.75;100.00;75885.31;5051902;27;19938;-66
2022/11/16 02:45:59;;;;;;;;;;;;;;;-142.75;100.00;75891.22;5057963;27;19946;-65
2022/11/16 02:48:27;;;;;;;;;;;;;;;-142.75;100.00;75897.13;5050501;27;19911;-66
2022/11/16 02:50:53;;;;;;;;;;;;;;;-142.75;100.00;75906.97;5040064;27;19915;-66
2022/11/16 02:53:20;;;;;;;;;;;;;;;-142.75;100.00;75901.06;5056936;27;20219;-67
2022/11/16 02:55:45;;;;;;;;;;;;;;;-142.75;100.00;75908.94;5058810;27;19983;-66
2022/11/16 02:58:13;;;;;;;;;;;;;;;-142.75;100.00;75912.88;5031116;28;20232;-66
2022/11/16 03:00:45;;;;;;;;;;;;;;;-142.75;100.00;75918.78;5056489;27;20001;-67
2022/11/16 03:03:23;;;;;;;;;;;;;;;-142.75;100.00;75908.94;5055246;27;20424;-66
2022/11/16 03:05:51;;;;;;;;;;;;;;;-142.75;100.00;75905.00;5057103;27;20022;-67
2022/11/16 03:08:24;;;;;;;;;;;;;;;-142.75;100.00;75903.03;5053606;27;19915;-66
2022/11/16 03:13:37;;;;;;;;;;;;;;;-142.75;100.00;75928.63;5046034;28;20131;-66
2022/11/16 03:16:07;;;;;;;;;;;;;;;-142.75;100.00;75928.63;5036935;28;20481;-66
2022/11/16 03:18:32;;;;;;;;;;;;;;;-142.75;100.00;75934.53;5056821;28;19915;-67
2022/11/16 03:21:05;;;;;;;;;;;;;;;-142.75;100.00;75936.50;5057206;28;20216;-67
2022/11/16 03:23:30;;;;;;;;;;;;;;;-142.75;100.00;75944.38;5051596;28;19912;-69
2022/11/16 03:25:56;;;;;;;;;;;;;;;-142.75;100.00;75952.25;5053843;28;20190;-66
2022/11/16 03:28:31;;;;;;;;;;;;;;;-142.75;100.00;75950.28;5056342;28;19912;-66
2022/11/16 03:30:59;;;;;;;;;;;;;;;-142.75;100.00;75948.31;5053381;28;19984;-67
2022/11/16 03:33:29;;;;;;;;;;;;;;;-142.75;100.00;75956.19;5041554;28;19911;-66
2022/11/16 03:35:58;;;;;;;;;;;;;;;-142.75;100.00;75964.03;5035044;28;19984;-66
2022/11/16 03:38:25;;;;;;;;;;;;;;;-142.75;100.00;75956.19;5052189;28;20025;-66
2022/11/16 03:40:50;;;;;;;;;;;;;;;-142.75;100.00;75960.13;5050137;28;19963;-67
2022/11/16 03:43:18;;;;;;;;;;;;;;;-142.75;100.00;75969.94;5058946;28;20080;-66
2022/11/16 03:45:44;;;;;;;;;;;;;;;-142.75;100.00;75971.91;5046764;28;19996;-66
2022/11/16 03:48:10;;;;;;;;;;;;;;;-142.75;100.00;75967.97;5066580;27;19919;-67
2022/11/16 03:50:35;;;;;;;;;;;;;;;-142.75;100.00;75977.81;5061499;27;20271;-66
2022/11/16 03:53:00;;;;;;;;;;;;;;;-142.75;100.00;75964.03;5059947;27;20330;-68
2022/11/16 03:55:26;;;;;;;;;;;;;;;-142.75;100.00;75977.81;5051585;28;20330;-67
2022/11/16 03:57:51;;;;;;;;;;;;;;;-142.75;100.00;75979.78;5052330;27;20193;-67
2022/11/16 04:00:16;;;;;;;;;;;;;;;-142.75;100.00;75991.59;5037370;27;19954;-66
2022/11/16 04:02:42;;;;;;;;;;;;;;;-142.75;100.00;76013.25;5067767;27;20270;-66
2022/11/16 04:24:29;;;;;;;;;;;;;;;-142.75;100.00;76042.78;5053015;27;20573;-66
2022/11/16 04:29:42;;;;;;;;;;;;;;;-142.75;100.00;76038.84;5059043;27;20046;-66
2022/11/16 04:37:47;;;;;;;;;;;;;;;-142.75;100.00;76042.78;5061349;27;20425;-66
2022/11/16 04:40:15;;;;;;;;;;;;;;;-142.75;100.00;76040.81;5047965;27;19965;-67
2022/11/16 04:42:41;;;;;;;;;;;;;;;-142.75;100.00;76046.72;5052140;27;20034;-66
2022/11/16 04:47:51;;;;;;;;;;;;;;;-142.75;100.00;76042.78;5051200;27;20398;-66
2022/11/16 04:50:17;;;;;;;;;;;;;;;-142.75;100.00;76046.72;5052431;27;20420;-66
2022/11/16 04:52:42;;;;;;;;;;;;;;;-142.75;100.00;76040.81;5026115;28;19969;-66
2022/11/16 04:55:08;;;;;;;;;;;;;;;-142.75;100.00;76038.84;5036106;27;20287;-66
2022/11/16 04:57:33;;;;;;;;;;;;;;;-142.75;100.00;76044.75;5040342;28;20238;-66
2022/11/16 04:59:58;;;;;;;;;;;;;;;-142.75;100.00;76054.59;5033694;28;19984;-66
2022/11/16 05:02:24;;;;;;;;;;;;;;;-142.75;100.00;76080.16;5033264;27;20339;-66
2022/11/16 05:04:49;;;;;;;;;;;;;;;-142.75;100.00;76066.41;5052549;27;20324;-66
2022/11/16 05:07:14;;;;;;;;;;;;;;;-142.75;100.00;76080.16;5067767;27;20292;-66
2022/11/16 05:09:41;;;;;;;;;;;;;;;-142.75;100.00;76068.38;5054082;27;20267;-66
2022/11/16 05:12:11;;;;;;;;;;;;;;;-142.75;100.00;76080.16;5030112;28;20089;-66
2022/11/16 05:14:36;;;;;;;;;;;;;;;-142.75;100.00;76097.88;5054101;27;19972;-66
2022/11/16 05:17:02;;;;;;;;;;;;;;;-142.75;100.00;76095.91;5055711;27;19916;-66
2022/11/16 05:22:11;;;;;;;;;;;;;;;-142.75;100.00;76121.50;5060657;27;20395;-66
2022/11/16 05:24:36;;;;;;;;;;;;;;;-142.75;100.00;76129.38;5068006;27;20428;-68
2022/11/16 05:27:02;;;;;;;;;;;;;;;-142.75;100.00;76131.34;5054023;27;20208;-68
2022/11/16 05:29:28;;;;;;;;;;;;;;;-142.75;100.00;76145.13;5055644;27;19988;-66
2022/11/16 05:31:53;;;;;;;;;;;;;;;-142.75;100.00;76151.03;5069075;27;20459;-66
2022/11/16 05:34:18;;;;;;;;;;;;;;;-142.75;100.00;76158.91;5055940;27;19969;-68
2022/11/16 05:36:44;;;;;;;;;;;;;;;-142.75;100.00;76160.88;5069555;27;20213;-68
2022/11/16 05:39:10;;;;;;;;;;;;;;;-142.75;100.00;76156.94;5045404;27;20324;-68
2022/11/16 05:41:35;;;;;;;;;;;;;;;-142.75;100.00;76158.91;5055857;27;19915;-68
2022/11/16 05:44:01;;;;;;;;;;;;;;;-142.75;100.00;76160.88;5054030;27;20221;-69
2022/11/16 05:46:26;;;;;;;;;;;;;;;-142.75;100.00;76168.75;5071422;27;20185;-68
2022/11/16 05:48:51;;;;;;;;;;;;;;;-142.75;100.00;76172.69;5070517;27;19911;-69
2022/11/16 05:51:17;;;;;;;;;;;;;;;-142.75;100.00;76196.31;5052976;28;20306;-68
2022/11/16 05:53:43;;;;;;;;;;;;;;;-142.75;100.00;76184.50;5061635;27;20327;-68
2022/11/16 05:56:08;;;;;;;;;;;;;;;-142.75;100.00;76184.50;5031868;28;19922;-68
2022/11/16 05:58:34;;;;;;;;;;;;;;;-142.75;100.00;76198.28;5049442;28;20159;-68
2022/11/16 06:00:59;;;;;;;;;;;;;;;-142.75;100.00;76215.97;5049518;28;20157;-68
2022/11/16 06:03:27;;;;;;;;;;;;;;;-142.75;100.00;76219.91;5058345;27;20260;-65
2022/11/16 06:05:53;;;;;;;;;;;;;;;-142.75;100.00;76219.91;5063175;27;19911;-65
2022/11/16 06:08:19;;;;;;;;;;;;;;;-142.75;100.00;76219.91;5061631;27;19972;-68
2022/11/16 06:10:44;;;;;;;;;;;;;;;-142.75;100.00;76239.59;5050203;27;19911;-68
2022/11/16 06:13:09;;;;;;;;;;;;;;;-142.75;100.00;76263.22;5064085;27;20363;-67
2022/11/16 06:15:36;;;;;;;;;;;;;;;-142.75;100.00;76263.22;5048419;28;19918;-68
2022/11/16 06:18:01;;;;;;;;;;;;;;;-142.75;100.00;76263.22;5063469;27;20029;-68
2022/11/16 06:20:26;;;;;;;;;;;;;;;-142.75;100.00;76273.06;5033777;28;20184;-67
2022/11/16 06:22:51;;;;;;;;;;;;;;;-142.75;100.00;76278.97;5055776;27;20193;-67
2022/11/16 06:25:17;;;;;;;;;;;;;;;-142.75;100.00;76286.84;5048835;27;20220;-68
2022/11/16 06:27:42;;;;;;;;;;;;;;;-142.75;100.00;76277.00;5055313;27;20259;-66
2022/11/16 06:30:08;;;;;;;;;;;;;;;-142.75;100.00;76290.78;5052166;27;20406;-66
2022/11/16 06:32:33;;;;;;;;;;;;;;;-142.75;100.00;76286.84;5066228;27;20227;-66
2022/11/16 06:34:58;;;;;;;;;;;;;;;-142.75;100.00;76300.63;5045373;27;20232;-66
2022/11/16 06:37:24;;;;;;;;;;;;;;;-142.75;100.00;76310.47;5046624;27;20211;-66
2022/11/16 06:39:49;;;;;;;;;;;;;;;-142.75;100.00;76314.41;5048392;27;19918;-66
2022/11/16 06:42:14;;;;;;;;;;;;;;;-142.75;100.00;76322.28;5049919;27;20333;-66
2022/11/16 06:44:40;;;;;;;;;;;;;;;-142.75;100.00;76328.19;5044886;27;20310;-66
2022/11/16 06:47:05;;;;;;;;;;;;;;;-142.75;100.00;76330.16;5053817;27;20377;-66
2022/11/16 06:49:30;;;;;;;;;;;;;;;-142.75;100.00;76334.09;5046164;27;20189;-66
2022/11/16 06:51:56;;;;;;;;;;;;;;;-142.75;100.00;76355.72;5051308;27;20228;-67
2022/11/16 06:54:21;;;;;;;;;;;;;;;-142.75;100.00;76347.84;5066692;27;20242;-68
2022/11/16 06:56:47;;;;;;;;;;;;;;;-142.75;100.00;76334.09;5028660;28;20212;-67
2022/11/16 06:59:12;;;;;;;;;;;;;;;-142.75;100.00;76349.81;5051394;28;19912;-67
2022/11/16 07:01:37;;;;;;;;;;;;;;;-142.75;100.00;76349.81;5048455;28;19911;-67
2022/11/16 07:04:02;;;;;;;;;;;;;;;-142.75;100.00;76349.81;5047760;28;20379;-67
2022/11/16 07:06:28;;;;;;;;;;;;;;;-142.75;100.00;76365.56;5045130;28;20263;-68
2022/11/16 07:08:53;;;;;;;;;;;;;;;-142.75;100.00;76353.78;5047341;28;20205;-67
2022/11/16 07:11:19;;;;;;;;;;;;;;;-142.75;100.00;76341.97;5058473;27;20220;-67
2022/11/16 07:13:44;;;;;;;;;;;;;;;-142.75;100.00;76355.72;5054908;27;20228;-68
2022/11/16 07:16:10;;;;;;;;;;;;;;;-142.75;100.00;76353.78;5067938;28;20250;-67
2022/11/16 07:18:37;;;;;;;;;;;;;;;-142.75;100.00;76353.78;5065967;28;20216;-67
2022/11/16 07:21:06;;;;;;;;;;;;;;;-142.75;100.00;76345.91;5058896;28;19926;-67
2022/11/16 07:23:32;;;;;;;;;;;;;;;-142.75;100.00;76351.81;5072025;27;19908;-65
2022/11/16 07:26:01;;;;;;;;;;;;;;;-142.75;100.00;76349.81;5040055;28;20187;-69
2022/11/16 07:28:27;;;;;;;;;;;;;;;-142.75;100.00;76341.97;5051315;27;20016;-68
2022/11/16 07:30:52;;;;;;;;;;;;;;;-142.75;100.00;76351.81;5089220;22;20300;-70
2022/11/16 07:33:18;;;;;;;;;;;;;;;-142.75;100.00;76351.81;5057167;27;20264;-70
2022/11/16 07:35:43;;;;;;;;;;;;;;;-142.75;100.00;76340.00;5042588;27;19991;-70
2022/11/16 07:38:08;;;;;;;;;;;;;;;-142.75;100.00;76328.19;5030945;27;19911;-70
2022/11/16 07:40:34;;;;;;;;;;;;;;;-142.75;100.00;76326.22;5062873;27;20154;-70
2022/11/16 07:42:59;;;;;;;;;;;;;;;-142.75;100.00;76308.50;5029997;28;20314;-70
2022/11/16 07:45:24;;;;;;;;;;;;;;;-142.75;100.00;76304.56;5045278;28;20394;-70
2022/11/16 07:47:52;;;;;;;;;;;;;;;-142.75;100.00;76310.47;5027231;28;20259;-70
2022/11/16 07:50:17;;;;;;;;;;;;;;;-142.75;100.00;76310.47;5062278;27;19922;-69
2022/11/16 07:52:45;;;;;;;;;;;;;;;-142.75;100.00;76290.78;5062298;27;20175;-70
2022/11/16 07:55:11;;;;;;;;;;;;;;;-142.75;100.00;76290.78;5059794;27;19915;-70
2022/11/16 07:57:36;;;;;;;;;;;;;;;-142.75;100.00;76278.97;5058375;27;19916;-70
2022/11/16 08:00:02;;;;;;;;;;;;;;;-142.75;100.00;76271.09;5058518;27;20075;-72
2022/11/16 08:02:28;;;;;;;;;;;;;;;-142.75;100.00;76269.13;5058968;27;19995;-67
2022/11/16 08:04:54;;;;;;;;;;;;;;;-142.75;100.00;76255.34;5032049;27;19911;-70
2022/11/16 08:07:19;;;;;;;;;;;;;;;-142.75;100.00;76239.59;5032354;28;20220;-66
2022/11/16 08:09:45;;;;;;;;;;;;;;;-142.75;100.00;76215.97;5040015;28;20189;-69
2022/11/16 08:12:10;;;;;;;;;;;;;;;-142.75;100.00;76212.03;5060873;27;20071;-71
2022/11/16 08:14:35;;;;;;;;;;;;;;;-142.75;100.00;76208.09;5055940;27;20228;-70
2022/11/16 08:17:02;;;;;;;;;;;;;;;-142.75;100.00;76214.00;5026356;28;20244;-70
2022/11/16 08:19:27;;;;;;;;;;;;;;;-142.75;100.00;76204.16;5033150;28;19930;-70
2022/11/16 08:21:53;;;;;;;;;;;;;;;-142.75;100.00;76202.19;5062241;27;19924;-69
2022/11/16 08:24:18;;;;;;;;;;;;;;;-142.75;100.00;76194.34;5109515;27;19911;-69
2022/11/16 08:26:43;;;;;;;;;;;;;;;-142.75;100.00;76137.25;5122907;27;19961;-69
2022/11/16 08:29:10;;;;;;;;;;;;;;;-142.75;100.00;76121.50;5108140;27;20377;-70
2022/11/16 08:31:35;;;;;;;;;;;;;;;-142.75;100.00;76145.13;5103986;28;19943;-71
2022/11/16 08:34:00;;;;;;;;;;;;;;;-142.75;100.00;76153.00;5103091;28;20428;-68
2022/11/16 08:36:25;;;;;;;;;;;;;;;-142.75;100.00;76129.38;5103052;28;19921;-70
2022/11/16 08:38:51;;;;;;;;;;;;;;;-142.75;100.00;76111.66;5101301;27;20518;-68
2022/11/16 08:41:17;;;;;;;;;;;;;;;-142.75;100.00;76078.19;5109860;27;20353;-71
2022/11/16 08:43:43;;;;;;;;;;;;;;;-142.75;100.00;76082.13;5117872;27;19915;-70
2022/11/16 08:46:09;;;;;;;;;;;;;;;-142.75;100.00;76064.44;5113731;27;19923;-72
2022/11/16 08:48:34;;;;;;;;;;;;;;;-142.75;100.00;76091.97;5105061;27;19915;-71
2022/11/16 08:51:10;;;;;;;;;;;;;;;-142.75;100.00;76082.13;5123620;27;20387;-70
2022/11/16 08:53:35;;;;;;;;;;;;;;;-142.75;100.00;76070.34;5116746;27;19919;-68
2022/11/16 08:56:02;;;;;;;;;;;;;;;-142.75;100.00;76062.47;5116052;27;19919;-67
2022/11/16 08:58:27;;;;;;;;;;;;;;;-142.75;100.00;76040.81;5104301;27;20002;-69
2022/11/16 09:00:52;;;;;;;;;;;;;;;-142.75;100.00;76080.16;5105998;27;19930;-69
2022/11/16 09:03:18;;;;;;;;;;;;;;;-142.75;100.00;76050.66;5100341;27;20415;-69
2022/11/16 09:05:45;;;;;;;;;;;;;;;-142.75;100.00;76019.16;5085777;27;19916;-69
2022/11/16 09:08:10;;;;;;;;;;;;;;;-142.75;100.00;75987.66;5108300;27;19915;-69
2022/11/16 09:10:36;;;;;;;;;;;;;;;-142.75;100.00;76021.13;5109639;27;20763;-68
2022/11/16 09:13:01;;;;;;;;;;;;;;;-142.75;100.00;75995.53;5102662;28;20460;-70
2022/11/16 09:15:27;;;;;;;;;;;;;;;-142.75;100.00;76042.78;5085108;28;20012;-70
2022/11/16 09:17:53;;;;;;;;;;;;;;;-142.75;100.00;76036.88;5102040;27;20042;-70
2022/11/16 09:20:19;;;;;;;;;;;;;;;-142.75;100.00;76007.34;5084901;28;20274;-71
2022/11/16 09:22:44;;;;;;;;;;;;;;;-142.75;100.00;75983.72;5102956;28;19944;-69
2022/11/16 09:25:10;;;;;;;;;;;;;;;-142.75;100.00;76023.09;5102399;28;19922;-70
2022/11/16 09:27:35;;;;;;;;;;;;;;;-142.75;100.00;76040.81;5102180;28;19920;-69
2022/11/16 09:30:00;;;;;;;;;;;;;;;-142.75;100.00;76060.50;5083844;28;20002;-71
2022/11/16 09:32:25;;;;;;;;;;;;;;;-142.75;100.00;76007.34;5103160;28;19920;-72
2022/11/16 09:34:51;;;;;;;;;;;;;;;-142.75;100.00;75952.25;5102350;28;19961;-69
2022/11/16 09:37:16;;;;;;;;;;;;;;;-142.75;100.00;75956.19;5101848;28;19934;-70
2022/11/16 09:39:41;;;;;;;;;;;;;;;-142.75;100.00;75948.31;5102679;28;20396;-70
2022/11/16 09:42:09;;;;;;;;;;;;;;;-142.75;100.00;75906.97;5101932;28;20324;-70
2022/11/16 09:44:40;;;;;;;;;;;;;;;-142.75;100.00;75930.59;5101751;28;20002;-69
2022/11/16 09:47:14;;;;;;;;;;;;;;;-142.75;100.00;75922.72;5101258;28;20761;-70
2022/11/16 09:49:42;;;;;;;;;;;;;;;-142.75;100.00;75952.25;5102511;28;19915;-70
2022/11/16 09:52:12;;;;;;;;;;;;;;;-142.75;100.00;75893.19;5083476;28;19919;-69
2022/11/16 09:54:39;;;;;;;;;;;;;;;-142.75;100.00;75873.50;5102376;28;19919;-70
2022/11/16 09:57:06;;;;;;;;;;;;;;;-142.75;100.00;75873.50;5100884;28;19916;-70
2022/11/16 09:59:37;;;;;;;;;;;;;;;-142.75;100.00;75865.63;5102223;28;20007;-68
2022/11/16 10:02:22;;;;;;;;;;;;;;;-142.75;100.00;75861.69;5101396;28;20819;-69
2022/11/16 10:04:57;;;;;;;;;;;;;;;-142.75;100.00;75885.31;5101776;27;20018;-71
2022/11/16 10:07:26;;;;;;;;;;;;;;;-142.75;100.00;75863.66;5101175;28;19923;-71
2022/11/16 10:09:51;;;;;;;;;;;;;;;-142.75;100.00;75889.25;5083609;28;19927;-69
2022/11/16 10:12:16;;;;;;;;;;;;;;;-142.75;100.00;75932.56;5093599;27;19915;-70
2022/11/16 10:14:56;;;;;;;;;;;;;;;-142.75;100.00;75897.13;5104215;27;19915;-70
2022/11/16 10:17:36;;;;;;;;;;;;;;;-142.75;100.00;75883.34;5121553;27;20383;-69
2022/11/16 10:20:20;;;;;;;;;;;;;;;-142.75;100.00;75834.16;5103643;27;19964;-68
2022/11/16 10:23:01;;;;;;;;;;;;;;;-142.75;100.00;75806.59;5122374;27;19923;-70
2022/11/16 10:25:46;;;;;;;;;;;;;;;-142.75;100.00;75779.03;5103964;27;19997;-70
2022/11/16 10:28:24;;;;;;;;;;;;;;;-142.75;100.00;75816.44;5101655;27;19919;-71
2022/11/16 10:30:55;;;;;;;;;;;;;;;-142.75;100.00;75816.44;5101545;28;19949;-72
2022/11/16 10:33:21;;;;;;;;;;;;;;;-142.75;100.00;75812.50;5101284;28;20378;-70
2022/11/16 10:35:53;;;;;;;;;;;;;;;-142.75;100.00;75865.63;5101741;28;19916;-69
2022/11/16 10:38:23;;;;;;;;;;;;;;;-142.75;100.00;75840.06;5100370;28;19915;-72
2022/11/16 10:40:51;;;;;;;;;;;;;;;-142.75;100.00;75865.63;5101387;28;20583;-71
2022/11/16 10:43:19;;;;;;;;;;;;;;;-142.75;100.00;75798.72;5101196;28;19916;-70
2022/11/16 10:45:49;;;;;;;;;;;;;;;-142.75;100.00;75786.91;5101523;28;20457;-70
2022/11/16 10:48:36;;;;;;;;;;;;;;;-142.75;100.00;75806.59;5100575;28;19915;-69
2022/11/16 10:51:01;;;;;;;;;;;;;;;-142.75;100.00;75731.81;5082324;28;19971;-70
2022/11/16 10:53:30;;;;;;;;;;;;;;;-142.75;100.00;75725.91;5101615;28;19919;-69
2022/11/16 10:56:12;;;;;;;;;;;;;;;-142.75;100.00;75743.63;5100901;28;19942;-70
2022/11/16 10:58:51;;;;;;;;;;;;;;;-142.75;100.00;75761.34;5100457;28;19915;-69
2022/11/16 11:01:35;;;;;;;;;;;;;;;-142.75;100.00;75757.41;5101023;28;19924;-70
2022/11/16 11:04:14;;;;;;;;;;;;;;;-142.75;100.00;75741.66;5100683;28;20438;-73
2022/11/16 11:06:39;;;;;;;;;;;;;;;-142.75;100.00;75765.25;5100185;28;19954;-68
2022/11/16 11:09:18;;;;;;;;;;;;;;;-142.75;100.00;75855.81;5100934;28;19990;-71
2022/11/16 11:14:39;;;;;;;;;;;;;;;-142.75;100.00;75956.19;5101251;28;19923;-68
2022/11/16 11:17:09;;;;;;;;;;;;;;;-142.75;100.00;75962.09;5099405;28;19915;-71
2022/11/16 11:19:35;;;;;;;;;;;;;;;-142.75;100.00;76019.16;5101145;28;19938;-71
2022/11/16 11:22:00;;;;;;;;;;;;;;;-142.75;100.00;76076.22;5082413;28;19920;-71
2022/11/16 11:24:27;;;;;;;;;;;;;;;-142.75;100.00;76103.78;5101066;28;19955;-70
2022/11/16 11:27:01;;;;;;;;;;;;;;;-142.75;100.00;76119.53;5081714;28;20011;-69
2022/11/16 11:29:29;;;;;;;;;;;;;;;-142.75;100.00;76129.38;5101193;28;19920;-68
2022/11/16 11:31:58;;;;;;;;;;;;;;;-142.75;100.00;76141.19;5082663;28;19969;-69
2022/11/16 11:34:25;;;;;;;;;;;;;;;-142.75;100.00;76139.22;5100394;28;20018;-69
2022/11/16 11:36:58;;;;;;;;;;;;;;;-142.75;100.00;76133.31;5099860;28;20008;-70
2022/11/16 11:39:27;;;;;;;;;;;;;;;-142.75;100.00;76133.31;5100662;28;19995;-67
2022/11/16 11:41:59;;;;;;;;;;;;;;;-142.75;100.00;76127.41;5082216;28;19980;-70
2022/11/16 11:44:31;;;;;;;;;;;;;;;-142.75;100.00;76109.69;5082576;28;19920;-70
2022/11/16 11:47:06;;;;;;;;;;;;;;;-142.75;100.00;76070.34;5081617;28;19927;-68
2022/11/16 11:49:37;;;;;;;;;;;;;;;-142.75;100.00;75991.59;5082753;28;19988;-72
2022/11/16 11:52:06;;;;;;;;;;;;;;;-142.75;100.00;75942.41;5099903;28;19915;-69
2022/11/16 11:54:35;;;;;;;;;;;;;;;-142.75;100.00;75885.31;5098168;28;19923;-69
2022/11/16 11:57:01;;;;;;;;;;;;;;;-142.75;100.00;75897.13;5101912;28;20265;-72
2022/11/16 11:59:26;;;;;;;;;;;;;;;-142.75;100.00;75950.28;5102971;28;19984;-70
2022/11/16 12:01:54;;;;;;;;;;;;;;;-142.75;100.00;75952.25;5120910;28;19923;-69
2022/11/16 12:04:27;;;;;;;;;;;;;;;-142.75;100.00;75956.19;5102678;28;19915;-70
2022/11/16 12:06:57;;;;;;;;;;;;;;;-142.75;100.00;75962.09;5101985;27;19922;-70
2022/11/16 12:09:22;;;;;;;;;;;;;;;-142.75;100.00;75991.59;5105849;27;19980;-71
2022/11/16 12:12:06;;;;;;;;;;;;;;;-142.75;100.00;75999.47;5124593;27;20014;-67
2022/11/16 12:14:31;;;;;;;;;;;;;;;-142.75;100.00;76044.75;5125101;27;19926;-72
2022/11/16 12:17:08;;;;;;;;;;;;;;;-142.75;100.00;76048.69;5087781;27;19916;-72
2022/11/16 12:19:33;;;;;;;;;;;;;;;-142.75;100.00;76054.59;5087344;27;19969;-73
2022/11/16 12:22:31;;;;;;;;;;;;;;;-142.75;100.00;76058.53;5095502;27;19919;-71
2022/11/16 12:25:02;;;;;;;;;;;;;;;-142.75;100.00;76088.03;5063804;28;19962;-71
2022/11/16 12:27:28;;;;;;;;;;;;;;;-142.75;100.00;76070.34;5103599;28;19922;-71
2022/11/16 12:30:02;;;;;;;;;;;;;;;-142.75;100.00;76062.47;5085451;28;19915;-71
2022/11/16 12:32:42;;;;;;;;;;;;;;;-142.75;100.00;76060.50;5104032;28;19912;-71
2022/11/16 12:35:08;;;;;;;;;;;;;;;-142.75;100.00;76054.59;5103470;28;19956;-71
2022/11/16 12:37:33;;;;;;;;;;;;;;;-142.75;100.00;76042.78;5088711;27;20010;-71
2022/11/16 12:40:17;;;;;;;;;;;;;;;-142.75;100.00;76009.31;5105666;27;20334;-74
2022/11/16 12:42:42;;;;;;;;;;;;;;;-142.75;100.00;76032.94;5124013;27;20682;-71
2022/11/16 12:45:40;;;;;;;;;;;;;;;-142.75;100.00;75999.47;5123839;27;19919;-71
2022/11/16 12:48:11;;;;;;;;;;;;;;;-142.75;100.00;75989.63;5059593;27;20436;-71
2022/11/16 12:50:39;;;;;;;;;;;;;;;-142.75;100.00;75985.69;5121175;27;19919;-71
2022/11/16 12:53:04;;;;;;;;;;;;;;;-142.75;100.00;76007.34;5060483;27;19923;-70
2022/11/16 12:55:29;;;;;;;;;;;;;;;-142.75;100.00;76025.06;5086827;27;19915;-72
2022/11/16 12:58:06;;;;;;;;;;;;;;;-142.75;100.00;76038.84;5104649;27;20280;-70
2022/11/16 13:00:58;;;;;;;;;;;;;;;-142.75;100.00;76032.94;5123921;27;19919;-71
2022/11/16 13:03:29;;;;;;;;;;;;;;;-142.75;100.00;76062.47;5074077;27;19925;-73
2022/11/16 13:05:56;;;;;;;;;;;;;;;-142.75;100.00;76048.69;5123597;27;19919;-69